Time;durP1;ratioP1;P1;durP2;ratioP2;P2;SDS_P1;SDS_P2;PMS_P1;PMS_P2;Temp;Humidity;BMP_temperature;BMP_pressure;BME280_temperature;BME280_humidity;BME280_pressure;Samples;Min_cycle;Max_cycle;Signal;HPM_P1;HPM_P2
2022/01/14 00:01:56;;;;;;;164.57;40.22;;;;;;;;;;4978011;28;20056;-48
2022/01/14 00:04:21;;;;;;;108.38;37.75;;;;;;;;;;4995387;28;20030;-50
2022/01/14 00:06:47;;;;;;;124.00;38.92;;;;;;;;;;4995298;28;20054;-48
2022/01/14 00:09:13;;;;;;;111.72;34.83;;;;;;;;;;4995268;28;20022;-47
2022/01/14 00:11:41;;;;;;;196.57;41.45;;;;;;;;;;4995306;28;20027;-51
2022/01/14 00:14:10;;;;;;;244.25;46.58;;;;;;;;;;4995074;28;20035;-48
2022/01/14 00:16:42;;;;;;;153.65;42.25;;;;;;;;;;4995216;28;20018;-48
2022/01/14 00:19:07;;;;;;;180.10;42.28;;;;;;;;;;4995285;28;20022;-48
2022/01/14 00:21:34;;;;;;;162.45;43.45;;;;;;;;;;4995061;28;20073;-49
2022/01/14 00:32:23;;;;;;;123.43;37.15;;;;;;;;;;4916008;29;20055;-47
2022/01/14 00:34:54;;;;;;;182.20;39.25;;;;;;;;;;4994702;28;20038;-49
2022/01/14 00:37:19;;;;;;;204.80;40.55;;;;;;;;;;4994941;28;20124;-50
2022/01/14 00:39:44;;;;;;;238.75;41.35;;;;;;;;;;4994824;28;20022;-48
2022/01/14 00:42:13;;;;;;;230.50;43.97;;;;;;;;;;4994876;28;20061;-49
2022/01/14 00:44:46;;;;;;;218.85;40.67;;;;;;;;;;4977648;28;20414;-49
2022/01/14 00:47:17;;;;;;;145.40;37.97;;;;;;;;;;4994727;28;20018;-48
2022/01/14 00:49:42;;;;;;;85.60;32.05;;;;;;;;;;4994762;28;20026;-51
2022/01/14 00:52:07;;;;;;;155.27;35.25;;;;;;;;;;4994061;28;20389;-51
2022/01/14 00:54:32;;;;;;;108.10;34.08;;;;;;;;;;4994607;28;20026;-49
2022/01/14 00:59:35;;;;;;;102.60;32.85;;;;;;;;;;4994739;28;20027;-48
2022/01/14 01:02:01;;;;;;;143.18;34.42;;;;;;;;;;4994617;28;20458;-48
2022/01/14 01:04:34;;;;;;;136.32;34.90;;;;;;;;;;4994534;28;20069;-48
2022/01/14 01:07:00;;;;;;;338.58;46.47;;;;;;;;;;4994565;28;20065;-49
2022/01/14 01:09:26;;;;;;;162.25;32.17;;;;;;;;;;4995609;28;20030;-48
2022/01/14 01:12:05;;;;;;;98.35;30.02;;;;;;;;;;4994878;28;20030;-48
2022/01/14 01:14:47;;;;;;;142.18;35.47;;;;;;;;;;4994458;28;20060;-48
2022/01/14 01:17:18;;;;;;;167.10;33.13;;;;;;;;;;4994471;28;20106;-48
2022/01/14 01:19:44;;;;;;;105.25;31.67;;;;;;;;;;4994561;28;20018;-49
2022/01/14 01:22:09;;;;;;;144.93;33.65;;;;;;;;;;4994357;28;20033;-47
2022/01/14 01:24:35;;;;;;;71.93;29.73;;;;;;;;;;4994401;28;20030;-48
2022/01/14 01:27:05;;;;;;;125.65;32.08;;;;;;;;;;4994388;28;20089;-48
2022/01/14 01:32:04;;;;;;;96.78;29.95;;;;;;;;;;4994409;28;20042;-48
2022/01/14 01:34:30;;;;;;;117.40;31.55;;;;;;;;;;4994079;28;20048;-48
2022/01/14 01:36:56;;;;;;;145.93;36.63;;;;;;;;;;4994278;28;20011;-48
2022/01/14 01:39:23;;;;;;;236.40;40.53;;;;;;;;;;4994176;28;20437;-48
2022/01/14 01:41:53;;;;;;;132.80;35.90;;;;;;;;;;4994165;28;20100;-47
2022/01/14 01:44:22;;;;;;;90.00;32.83;;;;;;;;;;4994085;28;20049;-48
2022/01/14 01:46:51;;;;;;;88.00;32.35;;;;;;;;;;4994113;28;20086;-48
2022/01/14 01:49:18;;;;;;;228.00;40.53;;;;;;;;;;4994156;28;20105;-50
2022/01/14 01:51:45;;;;;;;141.23;34.30;;;;;;;;;;4994145;28;20034;-49
2022/01/14 01:54:10;;;;;;;173.77;35.92;;;;;;;;;;4994021;28;20029;-49
2022/01/14 01:56:35;;;;;;;233.30;40.22;;;;;;;;;;4994135;28;20022;-47
2022/01/14 01:59:04;;;;;;;135.13;34.55;;;;;;;;;;4976681;28;20023;-48
2022/01/14 02:01:29;;;;;;;138.20;33.08;;;;;;;;;;4994133;28;20025;-48
2022/01/14 02:03:55;;;;;;;100.03;33.22;;;;;;;;;;4997599;28;20022;-51
2022/01/14 02:06:21;;;;;;;95.88;29.85;;;;;;;;;;4997712;28;20109;-49
2022/01/14 02:08:46;;;;;;;113.65;32.38;;;;;;;;;;4997513;28;20027;-48
2022/01/14 02:11:11;;;;;;;107.05;32.22;;;;;;;;;;4997497;28;20067;-51
2022/01/14 02:13:37;;;;;;;95.68;30.85;;;;;;;;;;4997404;28;20458;-48
2022/01/14 02:24:32;;;;;;;235.98;39.05;;;;;;;;;;4997511;28;20169;-48
2022/01/14 02:26:57;;;;;;;138.95;32.10;;;;;;;;;;4997165;28;20438;-49
2022/01/14 02:29:23;;;;;;;176.80;37.13;;;;;;;;;;4997195;28;20054;-48
2022/01/14 02:31:51;;;;;;;257.15;38.65;;;;;;;;;;4996874;28;20061;-48
2022/01/14 02:34:19;;;;;;;102.25;32.70;;;;;;;;;;4997058;28;20030;-48
2022/01/14 02:36:45;;;;;;;307.58;39.30;;;;;;;;;;4997061;28;20114;-51
2022/01/14 02:39:11;;;;;;;145.90;33.40;;;;;;;;;;4997023;28;20033;-51
2022/01/14 02:41:38;;;;;;;124.40;33.20;;;;;;;;;;4996873;28;20026;-51
2022/01/14 02:44:08;;;;;;;141.02;35.53;;;;;;;;;;4997084;28;20101;-51
2022/01/14 02:46:38;;;;;;;88.65;31.23;;;;;;;;;;4996924;28;20108;-50
2022/01/14 02:49:04;;;;;;;81.88;30.17;;;;;;;;;;4997019;28;20022;-48
2022/01/14 02:51:32;;;;;;;192.15;39.25;;;;;;;;;;4996897;28;20044;-51
2022/01/14 02:54:11;;;;;;;146.70;35.35;;;;;;;;;;4996879;28;20014;-49
2022/01/14 02:56:41;;;;;;;130.60;33.25;;;;;;;;;;4996789;28;20525;-50
2022/01/14 02:59:07;;;;;;;145.85;34.30;;;;;;;;;;4996691;28;20074;-51
2022/01/14 03:01:33;;;;;;;181.18;38.35;;;;;;;;;;4979464;28;20042;-49
2022/01/14 03:04:00;;;;;;;345.40;44.88;;;;;;;;;;4996485;28;20517;-49
2022/01/14 03:06:26;;;;;;;279.70;40.35;;;;;;;;;;4996488;28;20030;-48
2022/01/14 03:08:51;;;;;;;176.40;34.88;;;;;;;;;;4996598;28;20553;-51
2022/01/14 03:11:23;;;;;;;446.38;51.30;;;;;;;;;;4996421;28;20030;-48
2022/01/14 03:13:48;;;;;;;166.00;35.20;;;;;;;;;;4995727;28;20027;-49
2022/01/14 03:16:17;;;;;;;95.72;32.03;;;;;;;;;;4996412;28;20452;-48
2022/01/14 03:18:46;;;;;;;118.13;31.42;;;;;;;;;;4996312;28;20101;-48
2022/01/14 03:21:13;;;;;;;236.88;36.38;;;;;;;;;;4996290;28;20485;-48
2022/01/14 03:23:48;;;;;;;126.65;31.73;;;;;;;;;;4996338;28;20105;-48
2022/01/14 03:26:17;;;;;;;239.85;39.15;;;;;;;;;;4980069;28;20025;-49
2022/01/14 03:28:46;;;;;;;221.07;35.70;;;;;;;;;;4996169;28;20034;-47
2022/01/14 03:31:11;;;;;;;131.52;32.65;;;;;;;;;;4995894;28;20137;-48
2022/01/14 03:33:36;;;;;;;271.98;42.28;;;;;;;;;;4995981;28;20105;-48
2022/01/14 03:36:03;;;;;;;99.45;32.55;;;;;;;;;;4996018;28;20062;-47
2022/01/14 03:38:28;;;;;;;404.60;57.88;;;;;;;;;;4995922;28;20454;-48
2022/01/14 03:40:53;;;;;;;503.77;58.78;;;;;;;;;;4995751;28;20018;-49
2022/01/14 03:43:21;;;;;;;296.27;40.55;;;;;;;;;;4995889;28;20140;-49
2022/01/14 03:45:49;;;;;;;113.13;30.08;;;;;;;;;;4995775;28;20064;-49
2022/01/14 03:48:14;;;;;;;269.45;36.88;;;;;;;;;;4995793;28;20026;-50
2022/01/14 03:50:40;;;;;;;424.25;48.40;;;;;;;;;;4995663;28;20023;-48
2022/01/14 03:53:05;;;;;;;332.23;45.97;;;;;;;;;;4995530;28;20026;-49
2022/01/14 03:55:31;;;;;;;198.13;37.47;;;;;;;;;;4995682;28;20030;-47
2022/01/14 03:57:56;;;;;;;633.40;66.22;;;;;;;;;;4978230;28;20014;-48
2022/01/14 04:00:24;;;;;;;288.83;41.80;;;;;;;;;;4995600;28;20161;-48
2022/01/14 04:02:49;;;;;;;130.75;34.85;;;;;;;;;;4995455;28;20022;-48
2022/01/14 04:05:18;;;;;;;171.32;33.05;;;;;;;;;;4995362;28;20037;-48
2022/01/14 04:07:43;;;;;;;140.85;36.13;;;;;;;;;;4995413;28;20026;-48
2022/01/14 04:10:13;;;;;;;84.22;31.45;;;;;;;;;;4995352;28;20034;-48
2022/01/14 04:12:50;;;;;;;;;;;;;;;;;;4995669;28;20041;-49
2022/01/14 04:17:59;;;;;;;90.38;30.33;;;;;;;;;;4995609;28;20025;-49
2022/01/14 04:20:25;;;;;;;153.05;31.88;;;;;;;;;;4995162;28;20125;-48
2022/01/14 04:22:51;;;;;;;87.53;29.73;;;;;;;;;;4995111;28;20073;-50
2022/01/14 04:25:21;;;;;;;255.65;41.25;;;;;;;;;;4994228;28;20028;-49
2022/01/14 04:27:46;;;;;;;;;;;;;;;;;;4995422;28;20518;-50
2022/01/14 04:30:12;;;;;;;323.77;43.40;;;;;;;;;;4994724;28;19969;-48
2022/01/14 04:32:38;;;;;;;145.02;32.97;;;;;;;;;;4994890;28;20034;-47
2022/01/14 04:35:03;;;;;;;123.90;31.75;;;;;;;;;;4995106;28;20026;-48
2022/01/14 04:37:28;;;;;;;107.47;32.72;;;;;;;;;;4994825;28;20035;-48
2022/01/14 04:39:56;;;;;;;119.47;30.73;;;;;;;;;;4994919;28;20007;-49
2022/01/14 04:42:26;;;;;;;176.50;35.95;;;;;;;;;;4994922;28;20370;-48
2022/01/14 04:44:55;;;;;;;155.75;32.92;;;;;;;;;;4994986;28;20363;-50
2022/01/14 04:47:33;;;;;;;295.85;41.05;;;;;;;;;;4994805;28;20007;-48
2022/01/14 04:49:59;;;;;;;171.88;35.67;;;;;;;;;;4996036;28;20018;-48
2022/01/14 04:52:25;;;;;;;175.82;35.35;;;;;;;;;;4994808;28;20019;-48
2022/01/14 04:54:51;;;;;;;118.32;30.67;;;;;;;;;;4995119;28;20021;-47
2022/01/14 04:57:16;;;;;;;70.03;26.92;;;;;;;;;;4994788;28;20034;-47
2022/01/14 04:59:46;;;;;;;59.55;28.52;;;;;;;;;;4994704;28;20090;-47
2022/01/14 05:02:14;;;;;;;67.30;29.73;;;;;;;;;;4994747;28;20113;-48
2022/01/14 05:04:41;;;;;;;144.40;32.13;;;;;;;;;;4994671;28;20022;-48
2022/01/14 05:07:10;;;;;;;44.75;26.10;;;;;;;;;;4994615;28;20019;-48
2022/01/14 05:09:40;;;;;;;132.10;34.55;;;;;;;;;;4994605;28;20489;-48
2022/01/14 05:12:09;;;;;;;88.00;30.92;;;;;;;;;;4994398;28;20500;-48
2022/01/14 05:14:34;;;;;;;119.30;34.45;;;;;;;;;;4994309;28;20037;-48
2022/01/14 05:17:02;;;;;;;88.45;31.73;;;;;;;;;;4994536;28;20015;-48
2022/01/14 05:19:28;;;;;;;117.30;34.25;;;;;;;;;;4994561;28;20018;-48
2022/01/14 05:21:53;;;;;;;103.30;32.10;;;;;;;;;;4994400;28;20117;-48
2022/01/14 05:24:18;;;;;;;147.18;34.83;;;;;;;;;;4994586;28;20113;-48
2022/01/14 05:26:43;;;;;;;110.15;32.70;;;;;;;;;;4994393;28;20425;-48
2022/01/14 05:29:11;;;;;;;119.70;33.97;;;;;;;;;;4994361;28;20022;-47
2022/01/14 05:32:04;;;;;;;130.43;31.98;;;;;;;;;;4994056;28;20414;-48
2022/01/14 05:34:33;;;;;;;174.85;38.05;;;;;;;;;;4991678;28;20490;-48
2022/01/14 05:36:59;;;;;;;110.70;34.05;;;;;;;;;;4995142;28;20366;-50
2022/01/14 05:39:24;;;;;;;49.72;28.88;;;;;;;;;;4998211;28;20018;-47
2022/01/14 05:41:50;;;;;;;160.70;38.65;;;;;;;;;;4998053;28;20011;-51
2022/01/14 05:44:15;;;;;;;99.88;33.75;;;;;;;;;;4998096;28;20462;-49
2022/01/14 05:46:40;;;;;;;74.43;32.35;;;;;;;;;;4998011;28;20026;-48
2022/01/14 05:49:06;;;;;;;175.85;38.92;;;;;;;;;;4997996;28;20026;-47
2022/01/14 05:51:32;;;;;;;138.32;33.45;;;;;;;;;;4997934;28;20034;-48
2022/01/14 05:53:57;;;;;;;79.43;33.75;;;;;;;;;;4997942;28;20026;-48
2022/01/14 05:56:22;;;;;;;67.38;32.42;;;;;;;;;;4997903;28;20369;-48
2022/01/14 05:58:50;;;;;;;147.38;35.10;;;;;;;;;;4980299;28;20080;-48
2022/01/14 06:01:16;;;;;;;97.18;32.58;;;;;;;;;;4997736;28;20018;-49
2022/01/14 06:03:41;;;;;;;113.15;34.00;;;;;;;;;;4997659;28;20028;-50
2022/01/14 06:06:06;;;;;;;227.02;44.72;;;;;;;;;;4997746;28;20101;-48
2022/01/14 06:08:31;;;;;;;90.80;30.67;;;;;;;;;;4997672;28;20462;-48
2022/01/14 06:11:01;;;;;;;78.65;28.13;;;;;;;;;;4997619;28;20082;-48
2022/01/14 06:13:27;;;;;;;108.63;28.88;;;;;;;;;;4997353;28;20484;-49
2022/01/14 06:15:52;;;;;;;228.10;39.22;;;;;;;;;;4997504;28;20015;-48
2022/01/14 06:18:17;;;;;;;239.40;39.35;;;;;;;;;;4997476;28;20022;-48
2022/01/14 06:20:43;;;;;;;153.50;30.52;;;;;;;;;;4997499;28;20026;-48
2022/01/14 06:23:08;;;;;;;168.55;31.05;;;;;;;;;;4997948;28;20022;-53
2022/01/14 06:25:33;;;;;;;79.00;26.02;;;;;;;;;;4999741;28;20025;-51
2022/01/14 06:28:02;;;;;;;72.40;28.08;;;;;;;;;;4999523;28;20469;-53
2022/01/14 06:30:27;;;;;;;154.77;31.98;;;;;;;;;;4998898;28;20042;-53
2022/01/14 06:32:56;;;;;;;101.28;33.55;;;;;;;;;;4999381;28;20038;-50
2022/01/14 06:35:26;;;;;;;42.83;24.63;;;;;;;;;;4998776;28;20025;-52
2022/01/14 06:37:51;;;;;;;87.32;31.67;;;;;;;;;;4998438;28;20041;-51
2022/01/14 06:40:20;;;;;;;69.95;27.38;;;;;;;;;;4998190;28;20097;-50
2022/01/14 06:42:45;;;;;;;98.05;30.90;;;;;;;;;;4998323;28;20049;-53
2022/01/14 06:45:11;;;;;;;71.28;32.20;;;;;;;;;;4995665;28;20022;-50
2022/01/14 06:47:36;;;;;;;61.05;30.35;;;;;;;;;;4995476;28;20421;-54
2022/01/14 06:50:02;;;;;;;199.75;45.03;;;;;;;;;;4991824;28;20026;-54
2022/01/14 06:52:28;;;;;;;66.25;29.20;;;;;;;;;;4992698;28;20033;-54
2022/01/14 06:54:56;;;;;;;156.00;38.95;;;;;;;;;;4995892;28;20026;-52
2022/01/14 06:57:23;;;;;;;69.03;29.70;;;;;;;;;;4994381;28;20023;-52
2022/01/14 06:59:48;;;;;;;61.25;30.40;;;;;;;;;;4994451;28;20045;-51
2022/01/14 07:02:13;;;;;;;63.55;33.70;;;;;;;;;;4994303;28;20541;-52
2022/01/14 07:04:39;;;;;;;131.82;34.50;;;;;;;;;;4998359;28;20119;-52
2022/01/14 07:07:10;;;;;;;65.70;30.05;;;;;;;;;;4992617;28;20026;-50
2022/01/14 07:09:35;;;;;;;193.25;43.65;;;;;;;;;;4984734;28;20467;-51
2022/01/14 07:12:02;;;;;;;60.53;30.42;;;;;;;;;;4957017;28;20049;-50
2022/01/14 07:14:29;;;;;;;156.77;35.70;;;;;;;;;;4968196;28;20429;-51
2022/01/14 07:16:54;;;;;;;69.45;30.70;;;;;;;;;;4937782;28;20022;-50
2022/01/14 07:19:23;;;;;;;140.90;37.70;;;;;;;;;;4903258;28;20383;-53
2022/01/14 07:21:48;;;;;;;80.78;34.15;;;;;;;;;;4851902;28;20027;-51
2022/01/14 07:24:17;;;;;;;49.97;29.70;;;;;;;;;;4796874;28;22264;-52
2022/01/14 07:26:46;;;;;;;67.40;31.65;;;;;;;;;;4736990;28;20030;-52
2022/01/14 07:29:13;;;;;;;98.72;35.45;;;;;;;;;;4691327;28;22822;-50
2022/01/14 07:31:39;;;;;;;51.22;27.35;;;;;;;;;;4658769;28;20981;-50
2022/01/14 07:34:04;;;;;;;153.65;35.63;;;;;;;;;;4698821;28;20044;-51
2022/01/14 07:36:29;;;;;;;70.35;31.73;;;;;;;;;;4739815;28;20026;-51
2022/01/14 07:39:00;;;;;;;131.20;35.20;;;;;;;;;;4798890;28;22707;-52
2022/01/14 07:41:30;;;;;;;46.55;27.67;;;;;;;;;;4808882;28;20027;-53
2022/01/14 07:43:55;;;;;;;74.78;30.88;;;;;;;;;;4821968;28;20034;-51
2022/01/14 07:46:21;;;;;;;82.70;34.97;;;;;;;;;;4794489;28;20707;-50
2022/01/14 07:48:46;;;;;;;64.60;31.20;;;;;;;;;;4766620;28;20477;-50
2022/01/14 07:51:11;;;;;;;137.85;39.45;;;;;;;;;;4779851;28;20733;-54
2022/01/14 07:53:37;;;;;;;56.13;31.05;;;;;;;;;;4751824;28;20044;-50
2022/01/14 07:56:06;;;;;;;89.53;35.78;;;;;;;;;;4769907;28;21209;-52
2022/01/14 07:58:32;;;;;;;133.80;34.73;;;;;;;;;;4776092;28;20788;-52
2022/01/14 08:01:03;;;;;;;146.77;38.03;;;;;;;;;;4757160;28;22663;-53
2022/01/14 08:03:29;;;;;;;122.57;35.30;;;;;;;;;;4751454;28;20610;-51
2022/01/14 08:05:58;;;;;;;162.88;42.10;;;;;;;;;;4729131;28;23027;-50
2022/01/14 08:08:28;;;;;;;150.57;41.05;;;;;;;;;;4749220;28;20145;-55
2022/01/14 08:10:54;;;;;;;74.05;35.63;;;;;;;;;;4745740;28;20598;-51
2022/01/14 08:13:20;;;;;;;112.40;41.47;;;;;;;;;;4685907;28;23562;-54
2022/01/14 08:15:48;;;;;;;87.85;45.15;;;;;;;;;;4644655;28;20580;-53
2022/01/14 08:18:13;;;;;;;91.13;39.67;;;;;;;;;;4596462;28;21861;-53
2022/01/14 08:20:41;;;;;;;104.13;44.78;;;;;;;;;;4586510;28;20072;-51
2022/01/14 08:23:07;;;;;;;188.80;49.45;;;;;;;;;;4464599;28;22026;-49
2022/01/14 08:25:32;;;;;;;77.10;39.28;;;;;;;;;;4601807;28;20033;-51
2022/01/14 08:28:00;;;;;;;102.13;39.13;;;;;;;;;;4668837;28;22165;-52
2022/01/14 08:30:26;;;;;;;94.80;42.63;;;;;;;;;;4739215;23;20152;-51
2022/01/14 08:32:51;;;;;;;288.38;50.88;;;;;;;;;;4743097;28;21495;-53
2022/01/14 08:35:16;;;;;;;108.50;42.95;;;;;;;;;;4744398;28;21181;-53
2022/01/14 08:37:41;;;;;;;65.93;38.42;;;;;;;;;;4697142;28;21147;-51
2022/01/14 08:40:08;;;;;;;80.07;40.45;;;;;;;;;;4742132;28;20022;-50
2022/01/14 08:42:34;;;;;;;105.03;42.67;;;;;;;;;;4747082;28;20674;-50
2022/01/14 08:45:02;;;;;;;115.78;41.75;;;;;;;;;;4725850;28;20037;-52
2022/01/14 08:47:27;;;;;;;114.88;44.55;;;;;;;;;;4741860;28;22617;-53
2022/01/14 08:49:52;;;;;;;60.17;36.70;;;;;;;;;;4734376;28;20031;-51
2022/01/14 08:52:18;;;;;;;78.65;39.13;;;;;;;;;;4732112;28;20579;-51
2022/01/14 08:54:43;;;;;;;82.28;38.63;;;;;;;;;;4734992;28;22162;-49
2022/01/14 08:57:11;;;;;;;121.75;41.35;;;;;;;;;;4727317;28;20061;-50
2022/01/14 08:59:37;;;;;;;63.13;38.08;;;;;;;;;;4719729;28;20042;-50
2022/01/14 09:02:05;;;;;;;69.18;37.08;;;;;;;;;;4705471;28;20027;-51
2022/01/14 09:04:30;;;;;;;168.00;40.17;;;;;;;;;;4672804;28;20030;-53
2022/01/14 09:06:57;;;;;;;90.68;38.05;;;;;;;;;;4550988;28;22836;-52
2022/01/14 09:09:23;;;;;;;82.32;38.33;;;;;;;;;;4597732;28;20176;-50
2022/01/14 09:11:48;;;;;;;58.55;34.25;;;;;;;;;;4641076;28;21522;-52
2022/01/14 09:14:13;;;;;;;96.25;37.67;;;;;;;;;;4691663;28;21203;-52
2022/01/14 09:16:43;;;;;;;75.38;33.72;;;;;;;;;;4703737;28;20765;-51
2022/01/14 09:19:14;;;;;;;108.60;36.38;;;;;;;;;;4690440;28;21862;-51
2022/01/14 09:21:44;;;;;;;69.55;33.00;;;;;;;;;;4711615;28;22676;-52
2022/01/14 09:24:10;;;;;;;61.40;32.67;;;;;;;;;;4715852;28;21240;-53
2022/01/14 09:26:38;;;;;;;95.07;37.72;;;;;;;;;;4671802;28;20120;-52
2022/01/14 09:29:08;;;;;;;59.15;33.60;;;;;;;;;;4521806;28;22969;-50
2022/01/14 09:31:34;;;;;;;75.65;37.67;;;;;;;;;;4592986;28;20249;-50
2022/01/14 09:33:59;;;;;;;59.55;33.90;;;;;;;;;;4585254;28;22148;-51
2022/01/14 09:36:24;;;;;;;51.97;33.42;;;;;;;;;;4650262;28;22016;-52
2022/01/14 09:38:53;;;;;;;70.65;33.75;;;;;;;;;;4657463;28;20474;-52
2022/01/14 09:41:18;;;;;;;50.55;31.27;;;;;;;;;;4663256;28;21254;-51
2022/01/14 09:43:46;;;;;;;54.90;29.70;;;;;;;;;;4659992;28;20839;-50
2022/01/14 09:46:11;;;;;;;44.50;29.92;;;;;;;;;;4645019;28;20022;-51
2022/01/14 09:48:38;;;;;;;47.35;29.83;;;;;;;;;;4627166;28;20696;-50
2022/01/14 09:51:03;;;;;;;43.42;29.55;;;;;;;;;;4623139;28;21622;-53
2022/01/14 09:53:29;;;;;;;40.78;28.70;;;;;;;;;;4641628;28;23134;-51
2022/01/14 09:55:54;;;;;;;39.92;27.33;;;;;;;;;;4631933;28;23170;-51
2022/01/14 09:58:23;;;;;;;37.83;26.63;;;;;;;;;;4623063;28;20061;-50
2022/01/14 10:00:52;;;;;;;37.33;26.85;;;;;;;;;;4621882;28;20179;-51
2022/01/14 10:03:18;;;;;;;38.58;25.85;;;;;;;;;;4667919;28;20041;-51
2022/01/14 10:05:44;;;;;;;38.83;26.38;;;;;;;;;;4667746;28;20031;-52
2022/01/14 10:08:13;;;;;;;38.97;26.05;;;;;;;;;;4575134;28;21113;-50
2022/01/14 10:10:42;;;;;;;36.95;26.05;;;;;;;;;;4600522;28;21584;-53
2022/01/14 10:13:11;;;;;;;36.90;25.02;;;;;;;;;;4593645;28;20073;-52
2022/01/14 10:15:43;;;;;;;37.88;26.15;;;;;;;;;;4515121;28;21449;-54
2022/01/14 10:18:08;;;;;;;28.25;21.27;;;;;;;;;;4494363;28;22706;-51
2022/01/14 10:20:37;;;;;;;32.80;24.80;;;;;;;;;;4464942;28;20711;-50
2022/01/14 10:23:08;;;;;;;37.88;26.55;;;;;;;;;;4510141;28;22421;-48
2022/01/14 10:25:34;;;;;;;40.10;29.63;;;;;;;;;;4509222;28;21476;-54
2022/01/14 10:27:59;;;;;;;38.55;26.63;;;;;;;;;;4588657;28;20080;-50
2022/01/14 10:30:44;;;;;;;34.95;23.88;;;;;;;;;;4660526;28;23801;-50
2022/01/14 10:33:10;;;;;;;33.35;24.25;;;;;;;;;;4670222;28;20030;-50
2022/01/14 10:35:43;;;;;;;35.13;25.00;;;;;;;;;;4634799;28;22766;-52
2022/01/14 10:38:10;;;;;;;31.25;22.60;;;;;;;;;;4651993;28;20030;-50
2022/01/14 10:40:39;;;;;;;31.80;22.95;;;;;;;;;;4648329;28;20114;-50
2022/01/14 10:43:06;;;;;;;29.92;22.95;;;;;;;;;;4685287;28;20027;-53
2022/01/14 10:45:32;;;;;;;28.27;21.45;;;;;;;;;;4680638;28;20185;-51
2022/01/14 10:48:00;;;;;;;30.00;21.20;;;;;;;;;;4725997;28;22736;-53
2022/01/14 10:50:28;;;;;;;27.85;21.42;;;;;;;;;;4689630;28;20092;-51
2022/01/14 10:52:53;;;;;;;30.65;20.35;;;;;;;;;;4682608;28;23073;-53
2022/01/14 10:55:30;;;;;;;30.40;21.48;;;;;;;;;;4669912;28;26275;-52
2022/01/14 10:57:58;;;;;;;28.88;21.92;;;;;;;;;;4666274;28;20728;-50
2022/01/14 11:00:36;;;;;;;28.40;22.52;;;;;;;;;;4667369;28;22520;-50
2022/01/14 11:03:02;;;;;;;32.03;22.02;;;;;;;;;;4657882;28;21523;-50
2022/01/14 11:05:31;;;;;;;31.75;23.13;;;;;;;;;;4590705;28;20026;-51
2022/01/14 11:08:01;;;;;;;30.35;21.30;;;;;;;;;;4549694;28;21515;-53
2022/01/14 11:10:28;;;;;;;31.75;23.77;;;;;;;;;;4521119;28;20644;-51
2022/01/14 11:12:57;;;;;;;27.73;21.13;;;;;;;;;;4620009;28;21859;-50
2022/01/14 11:15:29;;;;;;;30.80;21.60;;;;;;;;;;4637296;28;21646;-54
2022/01/14 11:18:00;;;;;;;26.80;19.85;;;;;;;;;;4681559;28;23081;-54
2022/01/14 11:20:33;;;;;;;23.70;19.10;;;;;;;;;;4687567;28;20026;-53
2022/01/14 11:23:14;;;;;;;26.13;20.17;;;;;;;;;;4676223;28;22480;-50
2022/01/14 11:25:42;;;;;;;28.83;21.20;;;;;;;;;;4716067;28;20026;-51
2022/01/14 11:28:13;;;;;;;29.27;19.73;;;;;;;;;;4674498;28;20153;-51
2022/01/14 11:30:38;;;;;;;;;;;;;;;;;;4680205;28;20227;-50
2022/01/14 11:33:04;;;;;;;25.95;19.35;;;;;;;;;;4659520;28;20758;-50
2022/01/14 11:35:30;;;;;;;24.27;19.20;;;;;;;;;;4625456;28;20063;-53
2022/01/14 11:37:56;;;;;;;28.02;19.70;;;;;;;;;;4618271;28;21883;-52
2022/01/14 11:40:21;;;;;;;23.13;18.10;;;;;;;;;;4569007;28;21401;-50
2022/01/14 11:42:48;;;;;;;23.15;18.23;;;;;;;;;;4588983;28;20026;-53
2022/01/14 11:45:37;;;;;;;26.83;21.35;;;;;;;;;;4637387;28;20415;-50
2022/01/14 11:48:03;;;;;;;24.75;19.48;;;;;;;;;;4682591;28;20917;-51
2022/01/14 11:50:31;;;;;;;33.75;20.27;;;;;;;;;;4710380;28;22309;-53
2022/01/14 11:52:59;;;;;;;22.13;17.70;;;;;;;;;;4668827;28;20088;-53
2022/01/14 11:55:27;;;;;;;29.85;19.60;;;;;;;;;;4684024;28;20580;-54
2022/01/14 11:57:53;;;;;;;21.45;17.77;;;;;;;;;;4698108;28;20763;-54
2022/01/14 12:00:29;;;;;;;24.13;17.58;;;;;;;;;;4695535;28;20145;-53
2022/01/14 12:02:57;;;;;;;26.58;19.23;;;;;;;;;;4740978;28;21255;-52
2022/01/14 12:05:24;;;;;;;24.60;17.88;;;;;;;;;;4718750;28;20738;-54
2022/01/14 12:08:01;;;;;;;25.67;19.48;;;;;;;;;;4750326;28;21060;-52
2022/01/14 12:10:33;;;;;;;22.17;18.15;;;;;;;;;;4753656;28;21706;-53
2022/01/14 12:13:20;;;;;;;22.63;17.67;;;;;;;;;;4778006;28;20705;-50
2022/01/14 12:15:51;;;;;;;25.58;17.77;;;;;;;;;;4776103;28;20182;-49
2022/01/14 12:18:16;;;;;;;;;;;;;;;;;;4799333;28;21193;-52
2022/01/14 12:20:48;;;;;;;27.08;18.85;;;;;;;;;;4797471;28;19929;-52
2022/01/14 12:23:17;;;;;;;24.45;18.50;;;;;;;;;;4791345;28;21761;-48
2022/01/14 12:25:43;;;;;;;26.63;19.17;;;;;;;;;;4750164;28;20030;-50
2022/01/14 12:28:19;;;;;;;22.05;17.27;;;;;;;;;;4666924;28;22001;-52
2022/01/14 12:30:57;;;;;;;24.17;18.40;;;;;;;;;;4590539;28;21295;-54
2022/01/14 12:33:39;;;;;;;24.60;17.85;;;;;;;;;;4585585;28;21471;-60
2022/01/14 12:36:15;;;;;;;22.95;18.77;;;;;;;;;;4674364;28;22026;-50
2022/01/14 12:38:46;;;;;;;21.75;17.63;;;;;;;;;;4702644;28;20168;-52
2022/01/14 12:41:19;;;;;;;25.58;17.98;;;;;;;;;;4716203;28;20031;-51
2022/01/14 12:43:51;;;;;;;22.88;18.52;;;;;;;;;;4726629;28;20457;-50
2022/01/14 12:46:39;;;;;;;24.25;18.33;;;;;;;;;;4751959;28;22828;-51
2022/01/14 12:49:08;;;;;;;22.52;17.30;;;;;;;;;;4733277;28;24643;-51
2022/01/14 12:51:37;;;;;;;23.77;17.42;;;;;;;;;;4765692;28;21939;-53
2022/01/14 12:54:05;;;;;;;23.45;18.30;;;;;;;;;;4754637;28;21675;-51
2022/01/14 12:56:34;;;;;;;31.60;18.85;;;;;;;;;;4721851;28;20109;-49
2022/01/14 12:59:01;;;;;;;27.45;18.30;;;;;;;;;;4757135;28;20046;-50
2022/01/14 13:01:30;;;;;;;22.80;18.35;;;;;;;;;;4725396;28;20713;-52
2022/01/14 13:04:01;;;;;;;20.48;17.88;;;;;;;;;;4749647;28;20039;-51
2022/01/14 13:06:30;;;;;;;19.75;15.50;;;;;;;;;;4754941;28;20029;-51
2022/01/14 13:08:56;;;;;;;23.38;17.50;;;;;;;;;;4755932;28;20053;-52
2022/01/14 13:11:21;;;;;;;26.33;19.15;;;;;;;;;;4738823;28;21856;-50
2022/01/14 13:13:59;;;;;;;24.80;18.17;;;;;;;;;;4720513;28;20030;-52
2022/01/14 13:16:24;;;;;;;25.85;18.40;;;;;;;;;;4737848;28;20160;-52
2022/01/14 13:18:50;;;;;;;24.83;18.25;;;;;;;;;;4612103;28;20140;-55
2022/01/14 13:21:15;;;;;;;26.35;17.17;;;;;;;;;;4636700;28;25619;-51
2022/01/14 13:23:45;;;;;;;17.60;12.10;;;;;;;;;;4647150;28;20881;-51
2022/01/14 13:26:14;;;;;;;;;;;;;;;;;;4723252;28;20060;-51
2022/01/14 13:28:39;;;;;;;17.90;12.82;;;;;;;;;;4749139;28;19923;-53
2022/01/14 13:31:10;;;;;;;21.55;14.40;;;;;;;;;;4762214;28;20053;-53
2022/01/14 13:33:36;;;;;;;20.73;14.73;;;;;;;;;;4776379;28;20157;-50
2022/01/14 13:36:07;;;;;;;17.80;12.02;;;;;;;;;;4847223;23;20058;-53
2022/01/14 13:38:37;;;;;;;29.10;14.10;;;;;;;;;;4817739;28;20033;-51
2022/01/14 13:41:02;;;;;;;20.98;12.65;;;;;;;;;;4832262;28;20021;-53
2022/01/14 13:43:30;;;;;;;17.08;11.35;;;;;;;;;;4784595;28;20927;-50
2022/01/14 13:46:11;;;;;;;23.20;13.23;;;;;;;;;;4784463;28;22894;-55
2022/01/14 13:48:41;;;;;;;24.42;16.70;;;;;;;;;;4814004;28;20192;-55
2022/01/14 13:51:07;;;;;;;27.42;17.40;;;;;;;;;;4835350;28;20747;-49
2022/01/14 13:53:34;;;;;;;27.10;20.13;;;;;;;;;;4829778;28;21464;-50
2022/01/14 13:56:07;;;;;;;27.05;20.90;;;;;;;;;;4849619;28;20121;-50
2022/01/14 13:58:33;;;;;;;27.67;20.17;;;;;;;;;;4829806;28;20150;-53
2022/01/14 14:01:07;;;;;;;29.55;20.98;;;;;;;;;;4820945;28;20627;-51
2022/01/14 14:03:44;;;;;;;27.83;19.35;;;;;;;;;;4823815;28;20096;-50
2022/01/14 14:06:18;;;;;;;29.30;19.80;;;;;;;;;;4803280;28;21623;-51
2022/01/14 14:09:00;;;;;;;26.15;18.15;;;;;;;;;;4776628;28;20034;-50
2022/01/14 14:16:49;;;;;;;25.35;17.98;;;;;;;;;;4877681;28;20077;-51
2022/01/14 14:19:14;;;;;;;23.20;16.55;;;;;;;;;;4880564;28;20025;-49
2022/01/14 14:21:44;;;;;;;26.13;18.83;;;;;;;;;;4910984;28;22761;-48
2022/01/14 14:24:12;;;;;;;28.23;21.58;;;;;;;;;;4917347;28;20033;-50
2022/01/14 14:26:37;;;;;;;29.02;20.83;;;;;;;;;;4923155;28;20022;-49
2022/01/14 14:29:26;;;;;;;31.77;22.33;;;;;;;;;;4931944;28;20036;-49
2022/01/14 14:31:52;;;;;;;35.28;25.83;;;;;;;;;;4893362;28;20047;-48
2022/01/14 14:34:22;;;;;;;40.25;28.08;;;;;;;;;;4893600;28;20046;-49
2022/01/14 14:36:47;;;;;;;;;;;;;;;;;;4937171;28;20043;-51
2022/01/14 14:39:15;;;;;;;39.58;29.95;;;;;;;;;;4937985;28;20292;-49
2022/01/14 14:41:41;;;;;;;37.03;29.33;;;;;;;;;;4945411;28;20066;-51
2022/01/14 14:44:09;;;;;;;42.35;31.85;;;;;;;;;;4944706;28;20034;-51
2022/01/14 14:46:40;;;;;;;40.90;31.58;;;;;;;;;;4947185;28;20040;-50
2022/01/14 14:49:06;;;;;;;39.20;32.08;;;;;;;;;;4948222;28;20034;-49